sensor_id;sensor_type;location;lat;lon;timestamp;temperature;humidity
75387;DHT22;63966;47.914;22.266;2024-01-15T00:00:50;-1.71;89.41
75387;DHT22;63966;47.914;22.266;2024-01-15T00:03:53;-1.66;89.08
75387;DHT22;63966;47.914;22.266;2024-01-15T00:06:57;-1.57;88.47
75387;DHT22;63966;47.914;22.266;2024-01-15T00:10:00;-1.49;88.16
75387;DHT22;63966;47.914;22.266;2024-01-15T00:13:04;-1.42;87.71
75387;DHT22;63966;47.914;22.266;2024-01-15T00:16:08;-1.39;87.36
75387;DHT22;63966;47.914;22.266;2024-01-15T00:19:11;-1.40;87.41
75387;DHT22;63966;47.914;22.266;2024-01-15T00:22:15;-1.39;87.32
75387;DHT22;63966;47.914;22.266;2024-01-15T00:25:18;-1.33;87.15
75387;DHT22;63966;47.914;22.266;2024-01-15T00:28:21;-1.33;87.20
75387;DHT22;63966;47.914;22.266;2024-01-15T00:31:25;-1.36;86.98
75387;DHT22;63966;47.914;22.266;2024-01-15T00:34:28;-1.35;86.85
75387;DHT22;63966;47.914;22.266;2024-01-15T00:37:32;-1.33;86.65
75387;DHT22;63966;47.914;22.266;2024-01-15T00:40:35;-1.33;86.55
75387;DHT22;63966;47.914;22.266;2024-01-15T00:43:38;-1.36;86.62
75387;DHT22;63966;47.914;22.266;2024-01-15T00:46:45;-1.42;86.68
75387;DHT22;63966;47.914;22.266;2024-01-15T00:49:49;-1.47;86.51
75387;DHT22;63966;47.914;22.266;2024-01-15T00:52:52;-1.59;86.91
75387;DHT22;63966;47.914;22.266;2024-01-15T00:55:55;-1.63;86.98
75387;DHT22;63966;47.914;22.266;2024-01-15T00:59:00;-1.66;87.09
75387;DHT22;63966;47.914;22.266;2024-01-15T01:02:03;-1.59;86.93
75387;DHT22;63966;47.914;22.266;2024-01-15T01:05:07;-1.71;86.95
75387;DHT22;63966;47.914;22.266;2024-01-15T01:08:11;-1.70;87.03
75387;DHT22;63966;47.914;22.266;2024-01-15T01:11:15;-1.67;86.89
75387;DHT22;63966;47.914;22.266;2024-01-15T01:14:19;-1.62;86.74
75387;DHT22;63966;47.914;22.266;2024-01-15T01:17:22;-1.54;86.38
75387;DHT22;63966;47.914;22.266;2024-01-15T01:20:26;-1.42;86.05
75387;DHT22;63966;47.914;22.266;2024-01-15T01:23:29;-1.36;85.84
75387;DHT22;63966;47.914;22.266;2024-01-15T01:26:33;-1.22;85.35
75387;DHT22;63966;47.914;22.266;2024-01-15T01:29:36;-1.26;85.13
75387;DHT22;63966;47.914;22.266;2024-01-15T01:32:40;-1.23;85.26
75387;DHT22;63966;47.914;22.266;2024-01-15T01:35:43;-1.23;84.92
75387;DHT22;63966;47.914;22.266;2024-01-15T01:38:48;-1.28;85.11
75387;DHT22;63966;47.914;22.266;2024-01-15T01:41:51;-1.20;84.87
75387;DHT22;63966;47.914;22.266;2024-01-15T01:44:55;-1.22;84.80
75387;DHT22;63966;47.914;22.266;2024-01-15T01:47:58;-1.19;84.65
75387;DHT22;63966;47.914;22.266;2024-01-15T01:51:03;-1.16;84.60
75387;DHT22;63966;47.914;22.266;2024-01-15T01:54:08;-1.11;84.45
75387;DHT22;63966;47.914;22.266;2024-01-15T01:57:14;-1.06;84.35
75387;DHT22;63966;47.914;22.266;2024-01-15T02:00:18;-1.04;84.13
75387;DHT22;63966;47.914;22.266;2024-01-15T02:03:22;-0.98;83.85
75387;DHT22;63966;47.914;22.266;2024-01-15T02:06:25;-0.84;83.13
75387;DHT22;63966;47.914;22.266;2024-01-15T02:09:29;-0.91;83.22
75387;DHT22;63966;47.914;22.266;2024-01-15T02:12:32;-0.91;83.64
75387;DHT22;63966;47.914;22.266;2024-01-15T02:15:36;-0.84;83.40
75387;DHT22;63966;47.914;22.266;2024-01-15T02:18:43;-0.84;83.32
75387;DHT22;63966;47.914;22.266;2024-01-15T02:21:47;-0.61;82.73
75387;DHT22;63966;47.914;22.266;2024-01-15T02:24:51;-0.57;82.23
75387;DHT22;63966;47.914;22.266;2024-01-15T02:27:55;-0.52;82.16
75387;DHT22;63966;47.914;22.266;2024-01-15T02:31:00;-0.40;81.65
75387;DHT22;63966;47.914;22.266;2024-01-15T02:34:04;-0.37;81.90
75387;DHT22;63966;47.914;22.266;2024-01-15T02:37:07;-0.22;81.10
75387;DHT22;63966;47.914;22.266;2024-01-15T02:40:11;-0.33;81.34
75387;DHT22;63966;47.914;22.266;2024-01-15T02:43:14;-0.29;81.50
75387;DHT22;63966;47.914;22.266;2024-01-15T02:46:18;-0.12;80.75
75387;DHT22;63966;47.914;22.266;2024-01-15T02:49:21;-0.16;80.62
75387;DHT22;63966;47.914;22.266;2024-01-15T02:52:25;0.05;80.13
75387;DHT22;63966;47.914;22.266;2024-01-15T02:55:28;-0.02;79.79
75387;DHT22;63966;47.914;22.266;2024-01-15T02:58:35;0.03;79.94
75387;DHT22;63966;47.914;22.266;2024-01-15T03:01:38;0.05;79.54
75387;DHT22;63966;47.914;22.266;2024-01-15T03:04:45;0.11;79.51
75387;DHT22;63966;47.914;22.266;2024-01-15T03:07:48;0.19;79.15
75387;DHT22;63966;47.914;22.266;2024-01-15T03:10:52;0.13;79.26
75387;DHT22;63966;47.914;22.266;2024-01-15T03:13:55;0.18;79.22
75387;DHT22;63966;47.914;22.266;2024-01-15T03:16:59;0.09;79.28
75387;DHT22;63966;47.914;22.266;2024-01-15T03:20:04;0.12;79.01
75387;DHT22;63966;47.914;22.266;2024-01-15T03:23:07;0.06;79.25
75387;DHT22;63966;47.914;22.266;2024-01-15T03:26:11;0.11;79.03
75387;DHT22;63966;47.914;22.266;2024-01-15T03:29:14;0.05;79.31
75387;DHT22;63966;47.914;22.266;2024-01-15T03:32:18;0.09;79.33
75387;DHT22;63966;47.914;22.266;2024-01-15T03:35:22;0.05;79.38
75387;DHT22;63966;47.914;22.266;2024-01-15T03:38:28;0.15;78.84
75387;DHT22;63966;47.914;22.266;2024-01-15T03:41:31;0.02;79.36
75387;DHT22;63966;47.914;22.266;2024-01-15T03:44:34;0.08;79.42
75387;DHT22;63966;47.914;22.266;2024-01-15T03:47:38;0.05;79.61
75387;DHT22;63966;47.914;22.266;2024-01-15T03:50:41;0.06;79.47
75387;DHT22;63966;47.914;22.266;2024-01-15T03:53:45;0.06;79.53
75387;DHT22;63966;47.914;22.266;2024-01-15T03:56:48;0.09;79.45
75387;DHT22;63966;47.914;22.266;2024-01-15T03:59:51;0.06;79.56
75387;DHT22;63966;47.914;22.266;2024-01-15T04:02:55;0.09;79.69
75387;DHT22;63966;47.914;22.266;2024-01-15T04:05:58;0.15;79.38
75387;DHT22;63966;47.914;22.266;2024-01-15T04:09:02;0.38;79.01
75387;DHT22;63966;47.914;22.266;2024-01-15T04:12:06;0.32;78.79
75387;DHT22;63966;47.914;22.266;2024-01-15T04:15:09;0.35;78.68
75387;DHT22;63966;47.914;22.266;2024-01-15T04:18:13;0.33;78.58
75387;DHT22;63966;47.914;22.266;2024-01-15T04:21:18;0.36;78.30
75387;DHT22;63966;47.914;22.266;2024-01-15T04:24:22;0.36;78.42
75387;DHT22;63966;47.914;22.266;2024-01-15T04:27:25;0.23;78.61
75387;DHT22;63966;47.914;22.266;2024-01-15T04:30:28;0.29;78.71
75387;DHT22;63966;47.914;22.266;2024-01-15T04:33:32;0.40;78.66
75387;DHT22;63966;47.914;22.266;2024-01-15T04:36:40;0.49;78.32
75387;DHT22;63966;47.914;22.266;2024-01-15T04:39:45;0.54;77.88
75387;DHT22;63966;47.914;22.266;2024-01-15T04:42:48;0.57;77.57
75387;DHT22;63966;47.914;22.266;2024-01-15T04:45:52;0.54;77.57
75387;DHT22;63966;47.914;22.266;2024-01-15T04:48:56;0.73;77.74
75387;DHT22;63966;47.914;22.266;2024-01-15T04:51:59;0.95;76.75
75387;DHT22;63966;47.914;22.266;2024-01-15T04:55:03;0.88;76.63
75387;DHT22;63966;47.914;22.266;2024-01-15T04:58:06;0.73;76.39
75387;DHT22;63966;47.914;22.266;2024-01-15T05:01:10;0.57;77.09
75387;DHT22;63966;47.914;22.266;2024-01-15T05:04:13;0.87;75.95
75387;DHT22;63966;47.914;22.266;2024-01-15T05:07:17;0.99;74.97
75387;DHT22;63966;47.914;22.266;2024-01-15T05:10:20;0.98;75.34
75387;DHT22;63966;47.914;22.266;2024-01-15T05:13:24;0.98;75.28
75387;DHT22;63966;47.914;22.266;2024-01-15T05:16:27;1.01;75.09
75387;DHT22;63966;47.914;22.266;2024-01-15T05:19:30;0.74;75.41
75387;DHT22;63966;47.914;22.266;2024-01-15T05:22:34;0.59;76.28
75387;DHT22;63966;47.914;22.266;2024-01-15T05:25:37;0.53;76.58
75387;DHT22;63966;47.914;22.266;2024-01-15T05:28:44;0.53;76.82
75387;DHT22;63966;47.914;22.266;2024-01-15T05:31:47;0.74;76.89
75387;DHT22;63966;47.914;22.266;2024-01-15T05:34:51;0.77;76.56
75387;DHT22;63966;47.914;22.266;2024-01-15T05:37:55;0.69;76.83
75387;DHT22;63966;47.914;22.266;2024-01-15T05:40:58;0.66;77.09
75387;DHT22;63966;47.914;22.266;2024-01-15T05:44:01;0.85;76.87
75387;DHT22;63966;47.914;22.266;2024-01-15T05:47:05;1.07;75.56
75387;DHT22;63966;47.914;22.266;2024-01-15T05:50:09;1.04;75.54
75387;DHT22;63966;47.914;22.266;2024-01-15T05:53:13;1.11;75.26
75387;DHT22;63966;47.914;22.266;2024-01-15T05:56:16;1.31;74.65
75387;DHT22;63966;47.914;22.266;2024-01-15T05:59:19;1.45;73.84
75387;DHT22;63966;47.914;22.266;2024-01-15T06:02:23;1.32;74.18
75387;DHT22;63966;47.914;22.266;2024-01-15T06:05:26;1.25;74.68
75387;DHT22;63966;47.914;22.266;2024-01-15T06:08:30;1.28;75.09
75387;DHT22;63966;47.914;22.266;2024-01-15T06:11:33;1.21;75.53
75387;DHT22;63966;47.914;22.266;2024-01-15T06:14:37;1.25;75.43
75387;DHT22;63966;47.914;22.266;2024-01-15T06:17:41;1.21;76.20
75387;DHT22;63966;47.914;22.266;2024-01-15T06:20:44;1.11;75.99
75387;DHT22;63966;47.914;22.266;2024-01-15T06:23:48;1.04;76.89
75387;DHT22;63966;47.914;22.266;2024-01-15T06:26:51;0.63;78.59
75387;DHT22;63966;47.914;22.266;2024-01-15T06:29:54;0.81;77.90
75387;DHT22;63966;47.914;22.266;2024-01-15T06:32:59;0.74;78.54
75387;DHT22;63966;47.914;22.266;2024-01-15T06:36:03;0.76;79.12
75387;DHT22;63966;47.914;22.266;2024-01-15T06:39:06;0.90;78.74
75387;DHT22;63966;47.914;22.266;2024-01-15T06:42:10;0.99;78.75
75387;DHT22;63966;47.914;22.266;2024-01-15T06:45:13;0.90;79.35
75387;DHT22;63966;47.914;22.266;2024-01-15T06:48:17;0.95;78.69
75387;DHT22;63966;47.914;22.266;2024-01-15T06:51:23;0.77;79.82
75387;DHT22;63966;47.914;22.266;2024-01-15T06:54:31;0.66;81.05
75387;DHT22;63966;47.914;22.266;2024-01-15T06:57:44;0.54;81.47
75387;DHT22;63966;47.914;22.266;2024-01-15T07:01:03;0.78;81.70
75387;DHT22;63966;47.914;22.266;2024-01-15T07:04:53;1.34;81.41
75387;DHT22;63966;47.914;22.266;2024-01-15T07:08:28;1.66;80.15
75387;DHT22;63966;47.914;22.266;2024-01-15T07:12:10;1.83;79.66
75387;DHT22;63966;47.914;22.266;2024-01-15T07:15:27;1.94;79.20
75387;DHT22;63966;47.914;22.266;2024-01-15T07:18:41;2.04;79.31
75387;DHT22;63966;47.914;22.266;2024-01-15T07:21:45;2.17;78.85
75387;DHT22;63966;47.914;22.266;2024-01-15T07:25:01;2.45;78.32
75387;DHT22;63966;47.914;22.266;2024-01-15T07:28:16;2.64;77.55
75387;DHT22;63966;47.914;22.266;2024-01-15T07:31:46;3.68;74.59
75387;DHT22;63966;47.914;22.266;2024-01-15T07:35:14;4.94;70.30
75387;DHT22;63966;47.914;22.266;2024-01-15T07:38:31;5.40;69.09
75387;DHT22;63966;47.914;22.266;2024-01-15T07:42:00;5.19;69.32
75387;DHT22;63966;47.914;22.266;2024-01-15T07:45:38;4.61;71.57
75387;DHT22;63966;47.914;22.266;2024-01-15T07:49:20;4.79;71.37
75387;DHT22;63966;47.914;22.266;2024-01-15T07:52:40;4.24;73.33
75387;DHT22;63966;47.914;22.266;2024-01-15T07:56:37;3.83;75.46
75387;DHT22;63966;47.914;22.266;2024-01-15T08:00:40;3.63;75.79
75387;DHT22;63966;47.914;22.266;2024-01-15T08:04:00;3.34;76.69
75387;DHT22;63966;47.914;22.266;2024-01-15T08:07:25;3.28;77.41
75387;DHT22;63966;47.914;22.266;2024-01-15T08:10:52;3.25;77.77
75387;DHT22;63966;47.914;22.266;2024-01-15T08:14:11;3.24;77.69
75387;DHT22;63966;47.914;22.266;2024-01-15T08:17:23;3.32;77.75
75387;DHT22;63966;47.914;22.266;2024-01-15T08:21:04;3.27;77.87
75387;DHT22;63966;47.914;22.266;2024-01-15T08:24:45;3.34;77.63
75387;DHT22;63966;47.914;22.266;2024-01-15T08:27:55;3.49;77.59
75387;DHT22;63966;47.914;22.266;2024-01-15T08:31:02;3.54;77.38
75387;DHT22;63966;47.914;22.266;2024-01-15T08:34:09;3.28;78.04
75387;DHT22;63966;47.914;22.266;2024-01-15T08:37:37;3.32;78.58
75387;DHT22;63966;47.914;22.266;2024-01-15T08:40:40;3.60;77.65
75387;DHT22;63966;47.914;22.266;2024-01-15T08:43:49;3.68;77.09
75387;DHT22;63966;47.914;22.266;2024-01-15T08:47:17;3.52;77.57
75387;DHT22;63966;47.914;22.266;2024-01-15T08:50:20;3.79;76.93
75387;DHT22;63966;47.914;22.266;2024-01-15T08:53:24;4.14;76.44
75387;DHT22;63966;47.914;22.266;2024-01-15T08:56:27;4.35;75.42
75387;DHT22;63966;47.914;22.266;2024-01-15T08:59:33;4.55;75.27
75387;DHT22;63966;47.914;22.266;2024-01-15T09:02:37;4.30;75.97
75387;DHT22;63966;47.914;22.266;2024-01-15T09:05:40;3.96;76.89
75387;DHT22;63966;47.914;22.266;2024-01-15T09:08:45;4.01;76.90
75387;DHT22;63966;47.914;22.266;2024-01-15T09:11:48;4.18;76.79
75387;DHT22;63966;47.914;22.266;2024-01-15T09:14:51;4.24;76.41
75387;DHT22;63966;47.914;22.266;2024-01-15T09:17:56;4.24;76.34
75387;DHT22;63966;47.914;22.266;2024-01-15T09:21:03;4.34;75.92
75387;DHT22;63966;47.914;22.266;2024-01-15T09:24:08;4.52;75.43
75387;DHT22;63966;47.914;22.266;2024-01-15T09:27:11;4.38;75.20
75387;DHT22;63966;47.914;22.266;2024-01-15T09:30:15;4.22;75.38
75387;DHT22;63966;47.914;22.266;2024-01-15T09:33:19;4.24;75.46
75387;DHT22;63966;47.914;22.266;2024-01-15T09:36:23;4.40;75.21
75387;DHT22;63966;47.914;22.266;2024-01-15T09:39:27;4.24;74.44
75387;DHT22;63966;47.914;22.266;2024-01-15T09:42:31;4.16;73.97
75387;DHT22;63966;47.914;22.266;2024-01-15T09:45:35;4.33;73.80
75387;DHT22;63966;47.914;22.266;2024-01-15T09:48:39;4.31;72.39
75387;DHT22;63966;47.914;22.266;2024-01-15T09:51:43;4.27;72.27
75387;DHT22;63966;47.914;22.266;2024-01-15T09:54:49;4.37;70.34
75387;DHT22;63966;47.914;22.266;2024-01-15T09:57:53;4.35;69.99
75387;DHT22;63966;47.914;22.266;2024-01-15T10:00:59;4.42;69.23
75387;DHT22;63966;47.914;22.266;2024-01-15T10:04:09;4.10;69.18
75387;DHT22;63966;47.914;22.266;2024-01-15T10:07:16;4.04;69.03
75387;DHT22;63966;47.914;22.266;2024-01-15T10:11:05;4.20;67.20
75387;DHT22;63966;47.914;22.266;2024-01-15T10:14:28;4.21;66.86
75387;DHT22;63966;47.914;22.266;2024-01-15T10:17:32;4.48;65.59
75387;DHT22;63966;47.914;22.266;2024-01-15T10:20:36;4.69;64.21
75387;DHT22;63966;47.914;22.266;2024-01-15T10:23:40;4.92;61.90
75387;DHT22;63966;47.914;22.266;2024-01-15T10:26:44;4.73;60.08
75387;DHT22;63966;47.914;22.266;2024-01-15T10:29:48;4.82;60.74
75387;DHT22;63966;47.914;22.266;2024-01-15T10:33:01;4.86;60.83
75387;DHT22;63966;47.914;22.266;2024-01-15T10:36:10;4.55;60.51
75387;DHT22;63966;47.914;22.266;2024-01-15T10:39:14;4.66;60.13
75387;DHT22;63966;47.914;22.266;2024-01-15T10:42:18;5.06;58.70
75387;DHT22;63966;47.914;22.266;2024-01-15T10:45:21;4.82;58.38
75387;DHT22;63966;47.914;22.266;2024-01-15T10:48:26;4.61;60.35
75387;DHT22;63966;47.914;22.266;2024-01-15T10:51:32;4.89;58.27
75387;DHT22;63966;47.914;22.266;2024-01-15T10:54:38;4.68;59.18
75387;DHT22;63966;47.914;22.266;2024-01-15T10:57:42;4.77;58.67
75387;DHT22;63966;47.914;22.266;2024-01-15T11:00:49;4.83;58.39
75387;DHT22;63966;47.914;22.266;2024-01-15T11:03:53;4.66;59.04
75387;DHT22;63966;47.914;22.266;2024-01-15T11:06:57;4.83;59.25
75387;DHT22;63966;47.914;22.266;2024-01-15T11:10:04;4.83;59.67
75387;DHT22;63966;47.914;22.266;2024-01-15T11:16:54;4.96;58.93
75387;DHT22;63966;47.914;22.266;2024-01-15T11:19:59;5.00;59.40
75387;DHT22;63966;47.914;22.266;2024-01-15T11:23:03;5.13;59.09
75387;DHT22;63966;47.914;22.266;2024-01-15T11:29:38;4.49;59.68
75387;DHT22;63966;47.914;22.266;2024-01-15T11:32:41;4.20;61.03
75387;DHT22;63966;47.914;22.266;2024-01-15T11:35:49;4.24;61.96
75387;DHT22;63966;47.914;22.266;2024-01-15T11:38:53;3.93;62.06
75387;DHT22;63966;47.914;22.266;2024-01-15T11:41:58;3.76;62.35
75387;DHT22;63966;47.914;22.266;2024-01-15T11:45:02;3.36;63.49
75387;DHT22;63966;47.914;22.266;2024-01-15T11:48:15;3.29;64.26
75387;DHT22;63966;47.914;22.266;2024-01-15T11:51:20;3.54;64.31
75387;DHT22;63966;47.914;22.266;2024-01-15T11:54:25;3.55;63.96
75387;DHT22;63966;47.914;22.266;2024-01-15T11:57:46;3.63;63.42
75387;DHT22;63966;47.914;22.266;2024-01-15T12:00:51;3.39;64.23
75387;DHT22;63966;47.914;22.266;2024-01-15T12:03:56;3.18;64.71
75387;DHT22;63966;47.914;22.266;2024-01-15T12:07:02;2.94;65.22
75387;DHT22;63966;47.914;22.266;2024-01-15T12:10:15;2.94;65.33
75387;DHT22;63966;47.914;22.266;2024-01-15T12:13:21;2.86;65.40
75387;DHT22;63966;47.914;22.266;2024-01-15T12:16:25;2.84;66.39
75387;DHT22;63966;47.914;22.266;2024-01-15T12:19:29;2.93;66.23
75387;DHT22;63966;47.914;22.266;2024-01-15T12:22:33;3.20;65.22
75387;DHT22;63966;47.914;22.266;2024-01-15T12:25:57;2.83;65.48
75387;DHT22;63966;47.914;22.266;2024-01-15T12:29:05;2.62;66.50
75387;DHT22;63966;47.914;22.266;2024-01-15T12:32:09;2.46;66.49
75387;DHT22;63966;47.914;22.266;2024-01-15T12:35:13;2.69;66.43
75387;DHT22;63966;47.914;22.266;2024-01-15T12:38:19;2.83;65.78
75387;DHT22;63966;47.914;22.266;2024-01-15T12:41:23;2.97;65.31
75387;DHT22;63966;47.914;22.266;2024-01-15T12:44:27;3.28;64.56
75387;DHT22;63966;47.914;22.266;2024-01-15T12:47:31;3.18;64.16
75387;DHT22;63966;47.914;22.266;2024-01-15T12:50:35;3.08;64.48
75387;DHT22;63966;47.914;22.266;2024-01-15T12:53:39;3.03;64.30
75387;DHT22;63966;47.914;22.266;2024-01-15T12:56:42;3.12;63.25
75387;DHT22;63966;47.914;22.266;2024-01-15T12:59:46;3.07;64.34
75387;DHT22;63966;47.914;22.266;2024-01-15T13:02:50;3.04;63.84
75387;DHT22;63966;47.914;22.266;2024-01-15T13:05:56;3.20;63.96
75387;DHT22;63966;47.914;22.266;2024-01-15T13:09:00;3.29;62.60
75387;DHT22;63966;47.914;22.266;2024-01-15T13:12:04;3.10;62.21
75387;DHT22;63966;47.914;22.266;2024-01-15T13:15:09;3.18;61.44
75387;DHT22;63966;47.914;22.266;2024-01-15T13:18:17;3.14;61.76
75387;DHT22;63966;47.914;22.266;2024-01-15T13:21:21;3.12;62.04
75387;DHT22;63966;47.914;22.266;2024-01-15T13:24:25;3.12;63.48
75387;DHT22;63966;47.914;22.266;2024-01-15T13:27:28;3.42;61.65
75387;DHT22;63966;47.914;22.266;2024-01-15T13:30:32;3.22;63.03
75387;DHT22;63966;47.914;22.266;2024-01-15T13:33:36;3.14;63.03
75387;DHT22;63966;47.914;22.266;2024-01-15T13:36:43;3.18;62.98
75387;DHT22;63966;47.914;22.266;2024-01-15T13:39:46;3.10;62.86
75387;DHT22;63966;47.914;22.266;2024-01-15T13:42:50;3.01;62.89
75387;DHT22;63966;47.914;22.266;2024-01-15T13:45:56;3.03;63.32
75387;DHT22;63966;47.914;22.266;2024-01-15T13:48:59;3.03;63.27
75387;DHT22;63966;47.914;22.266;2024-01-15T13:52:03;2.96;63.93
75387;DHT22;63966;47.914;22.266;2024-01-15T13:55:07;2.90;64.98
75387;DHT22;63966;47.914;22.266;2024-01-15T13:58:12;2.87;65.77
75387;DHT22;63966;47.914;22.266;2024-01-15T14:01:16;2.75;66.34
75387;DHT22;63966;47.914;22.266;2024-01-15T14:04:20;2.77;66.19
75387;DHT22;63966;47.914;22.266;2024-01-15T14:07:24;2.76;66.66
75387;DHT22;63966;47.914;22.266;2024-01-15T14:10:28;2.64;67.01
75387;DHT22;63966;47.914;22.266;2024-01-15T14:13:32;2.48;67.54
75387;DHT22;63966;47.914;22.266;2024-01-15T14:16:35;2.38;67.47
75387;DHT22;63966;47.914;22.266;2024-01-15T14:19:39;2.45;67.24
75387;DHT22;63966;47.914;22.266;2024-01-15T14:22:42;2.39;67.30
75387;DHT22;63966;47.914;22.266;2024-01-15T14:25:53;2.26;67.88
75387;DHT22;63966;47.914;22.266;2024-01-15T14:28:57;2.34;67.61
75387;DHT22;63966;47.914;22.266;2024-01-15T14:32:02;2.14;69.11
75387;DHT22;63966;47.914;22.266;2024-01-15T14:35:06;2.04;70.24
75387;DHT22;63966;47.914;22.266;2024-01-15T14:38:12;2.00;70.89
75387;DHT22;63966;47.914;22.266;2024-01-15T14:41:16;1.83;72.08
75387;DHT22;63966;47.914;22.266;2024-01-15T14:44:22;1.76;73.00
75387;DHT22;63966;47.914;22.266;2024-01-15T14:47:26;1.70;73.23
75387;DHT22;63966;47.914;22.266;2024-01-15T14:50:31;1.60;74.12
75387;DHT22;63966;47.914;22.266;2024-01-15T14:53:35;1.56;74.42
75387;DHT22;63966;47.914;22.266;2024-01-15T14:56:40;1.53;75.29
75387;DHT22;63966;47.914;22.266;2024-01-15T14:59:43;1.50;75.37
75387;DHT22;63966;47.914;22.266;2024-01-15T15:02:47;1.40;75.39
75387;DHT22;63966;47.914;22.266;2024-01-15T15:05:51;1.24;76.20
75387;DHT22;63966;47.914;22.266;2024-01-15T15:08:55;1.05;76.36
75387;DHT22;63966;47.914;22.266;2024-01-15T15:12:01;0.94;76.73
75387;DHT22;63966;47.914;22.266;2024-01-15T15:15:06;0.90;77.19
75387;DHT22;63966;47.914;22.266;2024-01-15T15:18:15;0.81;77.53
75387;DHT22;63966;47.914;22.266;2024-01-15T15:21:18;0.74;77.85
75387;DHT22;63966;47.914;22.266;2024-01-15T15:24:22;0.76;77.91
75387;DHT22;63966;47.914;22.266;2024-01-15T15:27:25;0.70;78.14
75387;DHT22;63966;47.914;22.266;2024-01-15T15:30:31;0.70;78.21
75387;DHT22;63966;47.914;22.266;2024-01-15T15:33:35;0.66;78.29
75387;DHT22;63966;47.914;22.266;2024-01-15T15:36:39;0.56;78.58
75387;DHT22;63966;47.914;22.266;2024-01-15T15:39:43;0.46;79.39
75387;DHT22;63966;47.914;22.266;2024-01-15T15:42:47;0.46;79.76
75387;DHT22;63966;47.914;22.266;2024-01-15T15:45:51;0.46;79.91
75387;DHT22;63966;47.914;22.266;2024-01-15T15:48:54;0.32;80.67
75387;DHT22;63966;47.914;22.266;2024-01-15T15:51:58;0.35;81.09
75387;DHT22;63966;47.914;22.266;2024-01-15T15:55:02;0.48;81.53
75387;DHT22;63966;47.914;22.266;2024-01-15T15:58:06;0.43;81.26
75387;DHT22;63966;47.914;22.266;2024-01-15T16:01:09;0.52;81.17
75387;DHT22;63966;47.914;22.266;2024-01-15T16:04:13;0.35;82.08
75387;DHT22;63966;47.914;22.266;2024-01-15T16:07:18;0.23;82.80
75387;DHT22;63966;47.914;22.266;2024-01-15T16:10:23;0.16;83.45
75387;DHT22;63966;47.914;22.266;2024-01-15T16:13:26;0.22;83.61
75387;DHT22;63966;47.914;22.266;2024-01-15T16:16:30;0.40;82.94
75387;DHT22;63966;47.914;22.266;2024-01-15T16:19:54;0.25;83.38
75387;DHT22;63966;47.914;22.266;2024-01-15T16:23:17;0.45;82.74
75387;DHT22;63966;47.914;22.266;2024-01-15T16:26:41;0.40;83.13
75387;DHT22;63966;47.914;22.266;2024-01-15T16:29:46;0.36;83.06
75387;DHT22;63966;47.914;22.266;2024-01-15T16:32:49;0.36;83.42
75387;DHT22;63966;47.914;22.266;2024-01-15T16:35:53;0.33;83.60
75387;DHT22;63966;47.914;22.266;2024-01-15T16:38:56;0.52;83.21
75387;DHT22;63966;47.914;22.266;2024-01-15T16:42:00;0.63;82.67
75387;DHT22;63966;47.914;22.266;2024-01-15T16:45:04;0.71;82.12
75387;DHT22;63966;47.914;22.266;2024-01-15T16:48:08;0.83;81.62
75387;DHT22;63966;47.914;22.266;2024-01-15T16:51:12;0.64;81.53
75387;DHT22;63966;47.914;22.266;2024-01-15T16:54:15;0.66;81.21
75387;DHT22;63966;47.914;22.266;2024-01-15T16:57:19;0.60;81.12
75387;DHT22;63966;47.914;22.266;2024-01-15T17:00:22;0.73;80.38
75387;DHT22;63966;47.914;22.266;2024-01-15T17:03:26;0.76;80.40
75387;DHT22;63966;47.914;22.266;2024-01-15T17:06:30;0.83;80.01
75387;DHT22;63966;47.914;22.266;2024-01-15T17:09:34;0.73;80.09
75387;DHT22;63966;47.914;22.266;2024-01-15T17:12:37;0.73;79.94
75387;DHT22;63966;47.914;22.266;2024-01-15T17:15:41;0.91;79.33
75387;DHT22;63966;47.914;22.266;2024-01-15T17:18:45;0.83;79.47
75387;DHT22;63966;47.914;22.266;2024-01-15T17:21:49;0.77;79.48
75387;DHT22;63966;47.914;22.266;2024-01-15T17:24:52;0.87;79.16
75387;DHT22;63966;47.914;22.266;2024-01-15T17:27:56;0.88;78.93
75387;DHT22;63966;47.914;22.266;2024-01-15T17:31:00;1.05;78.08
75387;DHT22;63966;47.914;22.266;2024-01-15T17:34:04;1.07;77.89
75387;DHT22;63966;47.914;22.266;2024-01-15T17:37:07;1.08;77.63
75387;DHT22;63966;47.914;22.266;2024-01-15T17:40:11;1.07;77.80
75387;DHT22;63966;47.914;22.266;2024-01-15T17:43:15;1.19;76.99
75387;DHT22;63966;47.914;22.266;2024-01-15T17:46:19;1.28;76.78
75387;DHT22;63966;47.914;22.266;2024-01-15T17:49:23;1.24;76.36
75387;DHT22;63966;47.914;22.266;2024-01-15T17:52:26;1.05;77.00
75387;DHT22;63966;47.914;22.266;2024-01-15T17:55:30;1.09;76.70
75387;DHT22;63966;47.914;22.266;2024-01-15T17:58:34;1.12;76.46
75387;DHT22;63966;47.914;22.266;2024-01-15T18:01:38;1.14;75.95
75387;DHT22;63966;47.914;22.266;2024-01-15T18:04:45;1.18;75.58
75387;DHT22;63966;47.914;22.266;2024-01-15T18:07:48;1.22;75.10
75387;DHT22;63966;47.914;22.266;2024-01-15T18:10:52;1.21;75.14
75387;DHT22;63966;47.914;22.266;2024-01-15T18:13:56;1.21;75.06
75387;DHT22;63966;47.914;22.266;2024-01-15T18:16:59;1.35;74.50
75387;DHT22;63966;47.914;22.266;2024-01-15T18:20:03;1.39;74.32
75387;DHT22;63966;47.914;22.266;2024-01-15T18:23:07;1.40;74.23
75387;DHT22;63966;47.914;22.266;2024-01-15T18:26:11;1.25;74.91
75387;DHT22;63966;47.914;22.266;2024-01-15T18:29:14;1.42;74.60
75387;DHT22;63966;47.914;22.266;2024-01-15T18:32:18;1.64;73.76
75387;DHT22;63966;47.914;22.266;2024-01-15T18:35:22;1.36;74.41
75387;DHT22;63966;47.914;22.266;2024-01-15T18:38:27;1.29;74.80
75387;DHT22;63966;47.914;22.266;2024-01-15T18:41:31;1.29;74.59
75387;DHT22;63966;47.914;22.266;2024-01-15T18:44:34;1.25;74.97
75387;DHT22;63966;47.914;22.266;2024-01-15T18:47:38;1.24;75.00
75387;DHT22;63966;47.914;22.266;2024-01-15T18:50:42;1.26;74.91
75387;DHT22;63966;47.914;22.266;2024-01-15T18:53:46;1.46;73.97
75387;DHT22;63966;47.914;22.266;2024-01-15T18:56:49;1.34;74.46
75387;DHT22;63966;47.914;22.266;2024-01-15T18:59:53;1.47;73.74
75387;DHT22;63966;47.914;22.266;2024-01-15T19:02:57;1.39;74.01
75387;DHT22;63966;47.914;22.266;2024-01-15T19:06:05;1.43;73.51
75387;DHT22;63966;47.914;22.266;2024-01-15T19:09:09;1.40;74.04
75387;DHT22;63966;47.914;22.266;2024-01-15T19:12:13;1.42;73.78
75387;DHT22;63966;47.914;22.266;2024-01-15T19:15:17;1.43;73.35
75387;DHT22;63966;47.914;22.266;2024-01-15T19:18:23;1.46;73.13
75387;DHT22;63966;47.914;22.266;2024-01-15T19:21:27;1.55;72.70
75387;DHT22;63966;47.914;22.266;2024-01-15T19:24:30;1.60;72.66
75387;DHT22;63966;47.914;22.266;2024-01-15T19:27:34;1.47;73.05
75387;DHT22;63966;47.914;22.266;2024-01-15T19:30:40;1.40;73.58
75387;DHT22;63966;47.914;22.266;2024-01-15T19:33:44;1.42;73.39
75387;DHT22;63966;47.914;22.266;2024-01-15T19:36:48;1.50;73.36
75387;DHT22;63966;47.914;22.266;2024-01-15T19:39:53;1.52;73.18